Time;durP1;ratioP1;P1;durP2;ratioP2;P2;SDS_P1;SDS_P2;PMS_P1;PMS_P2;Temp;Humidity;BMP_temperature;BMP_pressure;BME280_temperature;BME280_humidity;BME280_pressure;Samples;Min_cycle;Max_cycle;Signal;HPM_P1;HPM_P2
2022/05/13 00:00:57;;;;;;;10.45;0.85;;;;;;;;;;5281324;28;20456;-66
2022/05/13 00:03:29;;;;;;;10.73;1.00;;;;;;;;;;5281995;28;20020;-67
2022/05/13 00:06:00;;;;;;;10.65;1.88;;;;;;;;;;5282531;28;20526;-67
2022/05/13 00:08:31;;;;;;;7.65;0.85;;;;;;;;;;5281371;28;20017;-67
2022/05/13 00:11:04;;;;;;;6.78;1.05;;;;;;;;;;5282250;28;20023;-67
2022/05/13 00:13:35;;;;;;;7.10;0.80;;;;;;;;;;5282253;28;20021;-68
2022/05/13 00:16:07;;;;;;;9.35;0.80;;;;;;;;;;5281351;28;20111;-67
2022/05/13 00:18:38;;;;;;;6.53;0.85;;;;;;;;;;5281903;28;20055;-67
2022/05/13 00:21:10;;;;;;;7.30;1.10;;;;;;;;;;5281650;28;20036;-67
2022/05/13 00:23:41;;;;;;;9.05;1.33;;;;;;;;;;5281825;28;20271;-67
2022/05/13 00:26:12;;;;;;;6.15;1.08;;;;;;;;;;5282097;28;20029;-67
2022/05/13 00:28:43;;;;;;;9.38;1.23;;;;;;;;;;5281148;28;20289;-67
2022/05/13 00:31:15;;;;;;;6.50;1.25;;;;;;;;;;5282015;28;20031;-67
2022/05/13 00:33:46;;;;;;;5.00;0.88;;;;;;;;;;5281745;28;20282;-67
2022/05/13 00:36:18;;;;;;;6.80;1.30;;;;;;;;;;5280950;28;20085;-67
2022/05/13 00:38:49;;;;;;;9.77;1.55;;;;;;;;;;5282386;28;20032;-67
2022/05/13 00:41:20;;;;;;;7.10;1.05;;;;;;;;;;5281282;28;20177;-67
2022/05/13 00:43:52;;;;;;;8.80;1.23;;;;;;;;;;5281129;28;20286;-67
2022/05/13 00:46:24;;;;;;;9.30;0.77;;;;;;;;;;5281188;28;20304;-67
2022/05/13 00:48:56;;;;;;;7.78;1.20;;;;;;;;;;5281550;28;20027;-67
2022/05/13 00:51:38;;;;;;;10.48;1.20;;;;;;;;;;5281072;28;20039;-67
2022/05/13 00:54:12;;;;;;;8.90;1.55;;;;;;;;;;5281518;28;20019;-67
2022/05/13 00:56:46;;;;;;;8.75;1.02;;;;;;;;;;5280638;28;20032;-67
2022/05/13 00:59:19;;;;;;;13.20;1.08;;;;;;;;;;5281644;28;20092;-67
2022/05/13 01:01:50;;;;;;;5.35;0.90;;;;;;;;;;5281901;28;20027;-67
2022/05/13 01:04:22;;;;;;;7.13;0.80;;;;;;;;;;5280536;28;20040;-67
2022/05/13 01:06:56;;;;;;;6.95;1.00;;;;;;;;;;5281563;28;20653;-67
2022/05/13 01:09:28;;;;;;;6.70;0.88;;;;;;;;;;5280719;28;20556;-68
2022/05/13 01:12:02;;;;;;;6.95;1.00;;;;;;;;;;5280761;28;20495;-68
2022/05/13 01:14:35;;;;;;;7.93;0.98;;;;;;;;;;5281301;28;20043;-68
2022/05/13 01:20:27;;;;;;;5.30;0.70;;;;;;;;;;5277312;28;20401;-68
2022/05/13 01:23:00;;;;;;;4.80;0.70;;;;;;;;;;5281487;28;20415;-68
2022/05/13 01:25:33;;;;;;;8.20;0.70;;;;;;;;;;5280406;28;20135;-68
2022/05/13 01:28:06;;;;;;;6.90;0.50;;;;;;;;;;5281183;28;20486;-68
2022/05/13 01:30:39;;;;;;;5.20;0.70;;;;;;;;;;5281172;28;20552;-68
2022/05/13 01:33:11;;;;;;;6.07;0.60;;;;;;;;;;5280581;28;20021;-68
2022/05/13 01:35:43;;;;;;;3.35;0.50;;;;;;;;;;5281014;28;20020;-67
2022/05/13 01:38:15;;;;;;;3.15;0.47;;;;;;;;;;5280264;28;20387;-67
2022/05/13 01:40:46;;;;;;;6.00;0.60;;;;;;;;;;5281130;28;20025;-68
2022/05/13 01:43:18;;;;;;;5.50;0.60;;;;;;;;;;5281208;28;20024;-68
2022/05/13 01:45:49;;;;;;;4.22;0.60;;;;;;;;;;5280541;28;20294;-67
2022/05/13 01:48:21;;;;;;;5.68;0.50;;;;;;;;;;5280789;28;20027;-70
2022/05/13 01:50:52;;;;;;;5.05;0.77;;;;;;;;;;5281202;28;20024;-69
2022/05/13 01:53:23;;;;;;;4.80;0.60;;;;;;;;;;5279956;28;20422;-70
2022/05/13 01:55:54;;;;;;;2.67;0.40;;;;;;;;;;5281362;28;20036;-69
2022/05/13 01:58:25;;;;;;;8.88;0.80;;;;;;;;;;5280426;28;20074;-70
2022/05/13 02:00:57;;;;;;;4.00;0.45;;;;;;;;;;5280481;28;20762;-69
2022/05/13 02:03:44;;;;;;;4.18;0.50;;;;;;;;;;5280541;28;20028;-69
2022/05/13 02:06:20;;;;;;;6.38;0.70;;;;;;;;;;5280413;28;20388;-69
2022/05/13 02:08:52;;;;;;;6.07;0.50;;;;;;;;;;5280834;28;20111;-69
2022/05/13 02:11:24;;;;;;;4.85;0.50;;;;;;;;;;5280514;28;20020;-70
2022/05/13 02:13:55;;;;;;;7.70;0.60;;;;;;;;;;5280356;28;20368;-69
2022/05/13 02:16:27;;;;;;;5.75;0.50;;;;;;;;;;5280655;28;20025;-67
2022/05/13 02:18:58;;;;;;;5.35;0.52;;;;;;;;;;5280858;28;20055;-68
2022/05/13 02:21:29;;;;;;;5.75;0.50;;;;;;;;;;5279684;28;20096;-67
2022/05/13 02:24:00;;;;;;;8.15;0.57;;;;;;;;;;5281464;28;20111;-67
2022/05/13 02:26:32;;;;;;;9.23;0.55;;;;;;;;;;5284225;28;20024;-67
2022/05/13 02:29:03;;;;;;;3.67;0.50;;;;;;;;;;5283809;28;20320;-67
2022/05/13 02:31:34;;;;;;;7.07;0.70;;;;;;;;;;5284363;28;20024;-66
2022/05/13 02:34:05;;;;;;;6.38;1.08;;;;;;;;;;5284411;28;20131;-67
2022/05/13 02:36:36;;;;;;;4.78;0.70;;;;;;;;;;5283486;28;20275;-67
2022/05/13 02:39:08;;;;;;;8.02;0.95;;;;;;;;;;5284151;28;20052;-68
2022/05/13 02:41:39;;;;;;;9.15;1.13;;;;;;;;;;5283470;28;20301;-68
2022/05/13 02:44:10;;;;;;;8.73;0.73;;;;;;;;;;5284066;28;20286;-67
2022/05/13 02:46:43;;;;;;;7.00;0.50;;;;;;;;;;5284036;28;20270;-67
2022/05/13 02:49:14;;;;;;;11.55;1.13;;;;;;;;;;5283177;28;20020;-68
2022/05/13 02:51:46;;;;;;;4.90;0.90;;;;;;;;;;5284121;28;20016;-67
2022/05/13 02:54:17;;;;;;;7.03;0.68;;;;;;;;;;5284144;28;20021;-67
2022/05/13 02:56:48;;;;;;;10.30;0.95;;;;;;;;;;5283227;28;20021;-67
2022/05/13 02:59:19;;;;;;;8.50;0.93;;;;;;;;;;5283578;28;20021;-67
2022/05/13 03:01:51;;;;;;;11.73;0.70;;;;;;;;;;5284319;28;20020;-67
2022/05/13 03:04:22;;;;;;;9.35;0.98;;;;;;;;;;5282811;28;20361;-67
2022/05/13 03:06:54;;;;;;;8.60;0.75;;;;;;;;;;5284032;28;20035;-67
2022/05/13 03:09:25;;;;;;;7.55;0.98;;;;;;;;;;5283299;28;20107;-67
2022/05/13 03:11:57;;;;;;;7.05;1.10;;;;;;;;;;5283114;28;20485;-67
2022/05/13 03:14:28;;;;;;;8.23;0.85;;;;;;;;;;5283206;28;20013;-67
2022/05/13 03:16:59;;;;;;;8.38;0.93;;;;;;;;;;5283515;28;20094;-67
2022/05/13 03:19:31;;;;;;;7.50;1.05;;;;;;;;;;5283287;28;20692;-67
2022/05/13 03:22:03;;;;;;;8.68;1.15;;;;;;;;;;5283387;28;20098;-67
2022/05/13 03:24:35;;;;;;;9.10;1.13;;;;;;;;;;5282228;28;20131;-67
2022/05/13 03:27:07;;;;;;;12.18;1.00;;;;;;;;;;5283155;28;20416;-68
2022/05/13 03:29:38;;;;;;;7.57;1.55;;;;;;;;;;5283280;28;20024;-67
2022/05/13 03:32:09;;;;;;;8.15;0.93;;;;;;;;;;5282162;28;20025;-68
2022/05/13 03:34:40;;;;;;;6.55;1.27;;;;;;;;;;5283211;28;20032;-67
2022/05/13 03:37:11;;;;;;;5.57;0.80;;;;;;;;;;5282924;28;20330;-67
2022/05/13 03:39:42;;;;;;;10.77;1.38;;;;;;;;;;5282311;28;20362;-67
2022/05/13 03:42:14;;;;;;;8.55;1.20;;;;;;;;;;5282954;28;20312;-67
2022/05/13 03:44:45;;;;;;;8.80;1.40;;;;;;;;;;5282669;28;20290;-67
2022/05/13 03:47:17;;;;;;;7.13;1.10;;;;;;;;;;5282354;28;20037;-66
2022/05/13 03:49:48;;;;;;;6.85;1.10;;;;;;;;;;5282518;28;20278;-67
2022/05/13 03:52:19;;;;;;;7.68;1.83;;;;;;;;;;5281598;28;20505;-67
2022/05/13 03:54:50;;;;;;;12.10;1.40;;;;;;;;;;5282815;28;20294;-68
2022/05/13 03:57:21;;;;;;;11.43;1.60;;;;;;;;;;5282199;28;20502;-67
2022/05/13 03:59:53;;;;;;;9.15;1.10;;;;;;;;;;5282086;28;20373;-68
2022/05/13 04:02:25;;;;;;;13.57;1.23;;;;;;;;;;5282216;28;20259;-67
2022/05/13 04:10:36;;;;;;;8.25;1.38;;;;;;;;;;5282525;28;20064;-67
2022/05/13 04:16:06;;;;;;;7.43;1.50;;;;;;;;;;5282728;28;20297;-67
2022/05/13 04:18:41;;;;;;;7.70;1.30;;;;;;;;;;5282148;28;20048;-68
2022/05/13 04:21:17;;;;;;;13.25;1.27;;;;;;;;;;5281107;28;20028;-68
2022/05/13 04:23:50;;;;;;;8.88;1.40;;;;;;;;;;5281962;28;20033;-67
2022/05/13 04:26:22;;;;;;;9.55;1.10;;;;;;;;;;5281638;28;20028;-67
2022/05/13 04:28:54;;;;;;;12.88;1.50;;;;;;;;;;5281536;28;20363;-67
2022/05/13 04:31:27;;;;;;;13.38;1.60;;;;;;;;;;5281709;28;20021;-68
2022/05/13 04:33:58;;;;;;;7.50;1.60;;;;;;;;;;5282341;28;20016;-68
2022/05/13 04:36:30;;;;;;;9.32;1.15;;;;;;;;;;5280866;28;20371;-67
2022/05/13 04:39:01;;;;;;;8.95;1.02;;;;;;;;;;5281940;28;20027;-67
2022/05/13 04:44:22;;;;;;;9.55;1.90;;;;;;;;;;5281688;28;20040;-67
2022/05/13 04:46:53;;;;;;;11.88;1.67;;;;;;;;;;5281713;28;20017;-68
2022/05/13 04:49:25;;;;;;;15.88;2.35;;;;;;;;;;5280727;28;20032;-67
2022/05/13 04:51:56;;;;;;;10.32;1.60;;;;;;;;;;5281943;28;20017;-68
2022/05/13 04:54:27;;;;;;;9.82;1.58;;;;;;;;;;5281164;28;20101;-68
2022/05/13 04:56:58;;;;;;;13.68;2.42;;;;;;;;;;5281323;28;20013;-67
2022/05/13 04:59:30;;;;;;;7.43;2.10;;;;;;;;;;5281380;28;20027;-67
2022/05/13 05:02:01;;;;;;;12.77;1.60;;;;;;;;;;5281636;28;20258;-68
2022/05/13 05:04:32;;;;;;;11.48;1.40;;;;;;;;;;5280452;28;20056;-67
2022/05/13 05:07:03;;;;;;;14.48;1.88;;;;;;;;;;5281454;28;20271;-67
2022/05/13 05:09:35;;;;;;;14.73;2.78;;;;;;;;;;5280594;28;20400;-67
2022/05/13 05:12:08;;;;;;;8.73;2.03;;;;;;;;;;5281238;28;20027;-68
2022/05/13 05:14:39;;;;;;;10.63;1.45;;;;;;;;;;5281300;28;20063;-67
2022/05/13 05:17:10;;;;;;;10.75;1.55;;;;;;;;;;5280534;28;20040;-68
2022/05/13 05:19:41;;;;;;;10.25;1.45;;;;;;;;;;5281139;28;20302;-68
2022/05/13 05:22:12;;;;;;;7.85;1.25;;;;;;;;;;5281399;28;20769;-67
2022/05/13 05:24:45;;;;;;;10.77;1.63;;;;;;;;;;5280930;28;20032;-67
2022/05/13 05:27:16;;;;;;;12.90;1.98;;;;;;;;;;5281189;28;20271;-68
2022/05/13 05:29:47;;;;;;;11.75;2.38;;;;;;;;;;5281245;28;20468;-68
2022/05/13 05:32:18;;;;;;;8.13;1.40;;;;;;;;;;5280350;28;20012;-68
2022/05/13 05:34:50;;;;;;;8.05;1.52;;;;;;;;;;5281750;28;20069;-69
2022/05/13 05:37:21;;;;;;;11.98;1.60;;;;;;;;;;5280065;28;20078;-69
2022/05/13 05:39:52;;;;;;;10.05;1.92;;;;;;;;;;5281458;28;20488;-69
2022/05/13 05:42:23;;;;;;;12.05;1.55;;;;;;;;;;5280857;28;20259;-68
2022/05/13 05:44:54;;;;;;;7.57;1.17;;;;;;;;;;5280890;28;20029;-68
2022/05/13 05:47:25;;;;;;;11.40;1.95;;;;;;;;;;5281098;28;20321;-68
2022/05/13 05:49:57;;;;;;;10.30;1.52;;;;;;;;;;5281254;28;20009;-68
2022/05/13 05:52:28;;;;;;;14.40;2.17;;;;;;;;;;5280126;28;20013;-68
2022/05/13 05:58:08;;;;;;;14.52;1.65;;;;;;;;;;5281798;28;20696;-67
2022/05/13 06:00:42;;;;;;;10.75;1.73;;;;;;;;;;5283641;28;20108;-68
2022/05/13 06:03:14;;;;;;;8.80;1.58;;;;;;;;;;5284711;28;20023;-68
2022/05/13 06:05:49;;;;;;;9.90;1.60;;;;;;;;;;5283996;28;20040;-68
2022/05/13 06:08:20;;;;;;;10.13;2.15;;;;;;;;;;5284327;28;20020;-68
2022/05/13 06:10:52;;;;;;;11.13;1.73;;;;;;;;;;5284739;28;20031;-68
2022/05/13 06:13:23;;;;;;;8.98;1.52;;;;;;;;;;5283260;28;20267;-68
2022/05/13 06:15:54;;;;;;;12.40;1.95;;;;;;;;;;5285269;28;20271;-68
2022/05/13 06:18:25;;;;;;;11.30;1.88;;;;;;;;;;5284128;28;20812;-68
2022/05/13 06:20:56;;;;;;;15.00;2.95;;;;;;;;;;5283998;28;20267;-68
2022/05/13 06:23:27;;;;;;;10.00;1.73;;;;;;;;;;5284102;28;20384;-67
2022/05/13 06:25:58;;;;;;;9.15;1.85;;;;;;;;;;5284446;28;20025;-67
2022/05/13 06:28:30;;;;;;;13.35;1.73;;;;;;;;;;5283386;28;20262;-67
2022/05/13 06:31:01;;;;;;;10.93;1.90;;;;;;;;;;5284592;28;20290;-67
2022/05/13 06:33:34;;;;;;;12.98;3.03;;;;;;;;;;5284192;28;20263;-68
2022/05/13 06:36:05;;;;;;;13.90;2.33;;;;;;;;;;5283709;28;20021;-67
2022/05/13 06:38:37;;;;;;;15.15;2.53;;;;;;;;;;5284050;28;20356;-68
2022/05/13 06:41:08;;;;;;;11.48;2.67;;;;;;;;;;5283178;28;20111;-67
2022/05/13 06:43:39;;;;;;;11.13;2.47;;;;;;;;;;5284188;28;20472;-67
2022/05/13 06:46:10;;;;;;;10.43;1.98;;;;;;;;;;5284047;28;20032;-68
2022/05/13 06:48:42;;;;;;;14.55;2.90;;;;;;;;;;5283074;28;20137;-67
2022/05/13 06:51:13;;;;;;;10.68;2.10;;;;;;;;;;5283679;28;20036;-67
2022/05/13 06:53:44;;;;;;;11.80;2.53;;;;;;;;;;5284019;28;20503;-67
2022/05/13 06:56:16;;;;;;;12.73;2.92;;;;;;;;;;5283130;28;20066;-67
2022/05/13 06:58:47;;;;;;;11.93;2.25;;;;;;;;;;5283963;28;20008;-67
2022/05/13 07:01:21;;;;;;;16.17;2.67;;;;;;;;;;5283485;28;20020;-68
2022/05/13 07:03:53;;;;;;;15.18;2.78;;;;;;;;;;5283298;28;20266;-68
2022/05/13 07:06:24;;;;;;;12.25;2.92;;;;;;;;;;5283689;28;20020;-68
2022/05/13 07:08:56;;;;;;;15.85;2.85;;;;;;;;;;5283361;28;20028;-69
2022/05/13 07:11:27;;;;;;;13.02;3.10;;;;;;;;;;5282982;28;20286;-67
2022/05/13 07:13:58;;;;;;;12.05;2.25;;;;;;;;;;5283755;28;20120;-67
2022/05/13 07:16:29;;;;;;;16.98;3.53;;;;;;;;;;5282694;28;20263;-68
2022/05/13 07:19:00;;;;;;;11.57;2.53;;;;;;;;;;5283390;28;20355;-68
2022/05/13 07:21:32;;;;;;;15.02;2.70;;;;;;;;;;5283302;28;20020;-69
2022/05/13 07:24:03;;;;;;;14.88;2.80;;;;;;;;;;5282676;28;20028;-69
2022/05/13 07:26:35;;;;;;;11.13;2.63;;;;;;;;;;5283135;28;20012;-66
2022/05/13 07:29:06;;;;;;;14.40;2.40;;;;;;;;;;5283470;28;20408;-67
2022/05/13 07:31:39;;;;;;;14.50;2.80;;;;;;;;;;5282513;28;20495;-67
2022/05/13 07:34:11;;;;;;;11.95;2.10;;;;;;;;;;5283182;28;20413;-67
2022/05/13 07:36:42;;;;;;;11.63;2.85;;;;;;;;;;5283017;28;20051;-67
2022/05/13 07:42:03;;;;;;;12.55;2.15;;;;;;;;;;5283417;28;20029;-67
2022/05/13 07:44:34;;;;;;;8.98;2.00;;;;;;;;;;5281920;28;20040;-67
2022/05/13 07:47:06;;;;;;;13.75;2.15;;;;;;;;;;5282884;28;20034;-67
2022/05/13 07:49:38;;;;;;;14.40;2.17;;;;;;;;;;5282890;28;20113;-67
2022/05/13 07:52:10;;;;;;;14.68;2.00;;;;;;;;;;5281870;28;20017;-66
2022/05/13 07:54:41;;;;;;;10.63;1.67;;;;;;;;;;5282687;28;20364;-66
2022/05/13 07:57:13;;;;;;;9.73;1.90;;;;;;;;;;5282644;28;20020;-66
2022/05/13 08:02:34;;;;;;;11.13;1.33;;;;;;;;;;5282793;28;20020;-68
2022/05/13 08:05:05;;;;;;;6.63;1.60;;;;;;;;;;5281909;28;20040;-68
2022/05/13 08:07:36;;;;;;;12.57;1.83;;;;;;;;;;5282436;28;20044;-70
2022/05/13 08:10:07;;;;;;;12.98;2.03;;;;;;;;;;5282056;28;20025;-69
2022/05/13 08:12:39;;;;;;;15.73;1.42;;;;;;;;;;5280750;28;20274;-69
2022/05/13 08:15:10;;;;;;;13.87;2.53;;;;;;;;;;5282144;28;20024;-68
2022/05/13 08:17:41;;;;;;;10.55;2.17;;;;;;;;;;5282135;28;20753;-68
2022/05/13 08:20:12;;;;;;;8.40;1.23;;;;;;;;;;5281303;28;20450;-68
2022/05/13 08:22:45;;;;;;;5.80;1.25;;;;;;;;;;5280595;28;20013;-68
2022/05/13 08:25:16;;;;;;;8.52;1.50;;;;;;;;;;5282172;28;20294;-68
2022/05/13 08:27:47;;;;;;;7.70;1.80;;;;;;;;;;5281387;28;20019;-68
2022/05/13 08:30:18;;;;;;;8.63;1.63;;;;;;;;;;5281508;28;20024;-69
2022/05/13 08:32:49;;;;;;;8.50;1.13;;;;;;;;;;5282246;28;20726;-68
2022/05/13 08:35:21;;;;;;;10.18;1.10;;;;;;;;;;5280622;28;20020;-69
2022/05/13 08:37:53;;;;;;;7.82;0.98;;;;;;;;;;5282455;28;20020;-69
2022/05/13 08:40:55;;;;;;;7.57;1.02;;;;;;;;;;5281030;28;20275;-69
2022/05/13 08:43:35;;;;;;;6.78;0.77;;;;;;;;;;5281515;28;20024;-69
2022/05/13 08:46:09;;;;;;;9.95;1.00;;;;;;;;;;5281626;28;20028;-69
2022/05/13 08:48:49;;;;;;;8.30;0.90;;;;;;;;;;5280355;28;20538;-69
2022/05/13 08:51:38;;;;;;;8.38;1.10;;;;;;;;;;5281518;28;20020;-68
2022/05/13 08:54:14;;;;;;;5.85;1.15;;;;;;;;;;5281990;28;20017;-68
2022/05/13 08:56:50;;;;;;;9.07;1.42;;;;;;;;;;5281717;28;20549;-69
2022/05/13 08:59:23;;;;;;;12.20;1.50;;;;;;;;;;5281612;28;20076;-70
2022/05/13 09:01:57;;;;;;;7.28;1.00;;;;;;;;;;5281366;28;20035;-69
2022/05/13 09:04:40;;;;;;;7.72;1.35;;;;;;;;;;5281147;28;20028;-70
2022/05/13 09:07:13;;;;;;;7.38;1.00;;;;;;;;;;5281724;28;20040;-70
2022/05/13 09:09:47;;;;;;;5.20;0.60;;;;;;;;;;5280898;28;20021;-69
2022/05/13 09:12:39;;;;;;;7.35;0.93;;;;;;;;;;5281270;28;20086;-70
2022/05/13 09:15:29;;;;;;;5.03;0.50;;;;;;;;;;5281613;28;20023;-70
2022/05/13 09:18:05;;;;;;;6.28;1.17;;;;;;;;;;5281474;28;20491;-70
2022/05/13 09:20:40;;;;;;;6.93;1.15;;;;;;;;;;5281376;28;20154;-70
2022/05/13 09:23:12;;;;;;;4.15;0.60;;;;;;;;;;5280517;28;20024;-70
2022/05/13 09:25:54;;;;;;;7.28;0.65;;;;;;;;;;5281473;28;20479;-70
2022/05/13 09:28:26;;;;;;;5.68;1.08;;;;;;;;;;5281098;28;20045;-70
2022/05/13 09:31:17;;;;;;;6.68;1.00;;;;;;;;;;5280822;28;20020;-69
2022/05/13 09:33:49;;;;;;;5.82;0.70;;;;;;;;;;5283944;28;20040;-70
2022/05/13 09:36:23;;;;;;;10.48;1.52;;;;;;;;;;5285275;28;20098;-69
2022/05/13 09:38:56;;;;;;;8.52;0.60;;;;;;;;;;5285161;28;20066;-69
2022/05/13 09:41:32;;;;;;;5.18;0.98;;;;;;;;;;5284965;28;20390;-69
2022/05/13 09:44:10;;;;;;;4.38;0.50;;;;;;;;;;5284600;28;20021;-69
2022/05/13 09:46:43;;;;;;;4.07;0.65;;;;;;;;;;5285666;28;20488;-70
2022/05/13 09:49:20;;;;;;;5.82;0.60;;;;;;;;;;5285270;28;20020;-70
2022/05/13 09:51:54;;;;;;;7.20;0.60;;;;;;;;;;5284913;28;20028;-70
2022/05/13 09:54:31;;;;;;;7.75;0.80;;;;;;;;;;5284875;28;20020;-70
2022/05/13 09:57:22;;;;;;;5.07;0.60;;;;;;;;;;5284958;28;20028;-70
2022/05/13 10:00:03;;;;;;;6.22;0.68;;;;;;;;;;5284152;28;20458;-70
2022/05/13 10:02:36;;;;;;;4.85;0.60;;;;;;;;;;5284820;28;20028;-68
2022/05/13 10:05:15;;;;;;;6.30;0.70;;;;;;;;;;5283954;28;20390;-68
2022/05/13 10:07:49;;;;;;;7.20;0.63;;;;;;;;;;5284838;28;20067;-68
2022/05/13 10:16:14;;;;;;;4.85;1.13;;;;;;;;;;5285033;28;20020;-69
2022/05/13 10:18:50;;;;;;;10.07;0.60;;;;;;;;;;5283493;28;20075;-69
2022/05/13 10:21:26;;;;;;;5.13;0.70;;;;;;;;;;5284308;28;20442;-69
2022/05/13 10:24:01;;;;;;;8.35;0.60;;;;;;;;;;5285038;28;20039;-70
2022/05/13 10:26:36;;;;;;;5.72;0.95;;;;;;;;;;5283831;28;20020;-70
2022/05/13 10:29:16;;;;;;;7.22;0.60;;;;;;;;;;5284518;28;20013;-69
2022/05/13 10:31:49;;;;;;;3.70;0.43;;;;;;;;;;5284453;28;20012;-70
2022/05/13 10:34:33;;;;;;;4.75;0.57;;;;;;;;;;5283661;28;20078;-71
2022/05/13 10:37:13;;;;;;;6.22;0.77;;;;;;;;;;5284129;28;20108;-70
2022/05/13 10:39:46;;;;;;;4.93;0.80;;;;;;;;;;5283811;28;20024;-70
2022/05/13 10:42:17;;;;;;;4.25;0.50;;;;;;;;;;5284061;28;20383;-70
2022/05/13 10:45:05;;;;;;;5.67;0.50;;;;;;;;;;5283428;28;20040;-69
2022/05/13 10:47:45;;;;;;;4.68;0.40;;;;;;;;;;5283309;28;20468;-69
2022/05/13 10:50:19;;;;;;;4.30;0.50;;;;;;;;;;5283954;28;20027;-70
2022/05/13 10:52:56;;;;;;;6.38;0.80;;;;;;;;;;5284306;28;20416;-70
2022/05/13 10:55:39;;;;;;;7.32;0.80;;;;;;;;;;5282790;28;20100;-69
2022/05/13 10:58:13;;;;;;;9.60;0.60;;;;;;;;;;5283755;28;20020;-69
2022/05/13 11:00:49;;;;;;;6.32;0.60;;;;;;;;;;5283579;28;20407;-69
2022/05/13 11:03:35;;;;;;;6.05;1.00;;;;;;;;;;5282754;28;20044;-69
2022/05/13 11:06:07;;;;;;;6.57;0.50;;;;;;;;;;5283777;28;20112;-69
2022/05/13 11:08:57;;;;;;;6.93;0.70;;;;;;;;;;5282820;28;20535;-70
2022/05/13 11:11:44;;;;;;;6.72;0.70;;;;;;;;;;5282955;28;20103;-69
2022/05/13 11:14:34;;;;;;;6.68;0.60;;;;;;;;;;5283260;28;20024;-70
2022/05/13 11:17:18;;;;;;;6.10;0.60;;;;;;;;;;5282521;28;20475;-70
2022/05/13 11:20:00;;;;;;;2.95;0.50;;;;;;;;;;5283432;28;20377;-68
2022/05/13 11:22:39;;;;;;;5.30;0.50;;;;;;;;;;5282321;28;20021;-68
2022/05/13 11:28:32;;;;;;;5.50;0.93;;;;;;;;;;5283629;28;20020;-69
2022/05/13 11:31:18;;;;;;;4.97;0.50;;;;;;;;;;5280987;28;20028;-69
2022/05/13 11:33:49;;;;;;;6.00;0.70;;;;;;;;;;5282525;28;20028;-71
2022/05/13 11:36:53;;;;;;;4.40;1.05;;;;;;;;;;5282125;28;20035;-70
2022/05/13 11:39:38;;;;;;;5.38;0.43;;;;;;;;;;5259557;28;20033;-69
2022/05/13 11:42:18;;;;;;;3.47;0.40;;;;;;;;;;5283024;28;20028;-69
2022/05/13 11:45:02;;;;;;;3.80;1.05;;;;;;;;;;5282414;28;20039;-69
2022/05/13 11:47:33;;;;;;;6.30;0.60;;;;;;;;;;5282875;28;20093;-70
2022/05/13 11:50:04;;;;;;;4.00;0.45;;;;;;;;;;5282557;28;20066;-69
2022/05/13 11:52:36;;;;;;;2.35;0.45;;;;;;;;;;5282461;28;20025;-69
2022/05/13 11:55:12;;;;;;;5.55;0.60;;;;;;;;;;5282759;28;20025;-69
2022/05/13 11:57:51;;;;;;;4.50;0.57;;;;;;;;;;5280780;28;20028;-68
2022/05/13 12:00:33;;;;;;;3.90;0.65;;;;;;;;;;5282481;28;20020;-69
2022/05/13 12:03:07;;;;;;;5.20;0.90;;;;;;;;;;5282725;28;20145;-68
2022/05/13 12:05:38;;;;;;;5.35;0.80;;;;;;;;;;5281653;28;20035;-69
2022/05/13 12:08:18;;;;;;;7.43;0.80;;;;;;;;;;5282509;28;20379;-69
2022/05/13 12:10:52;;;;;;;6.88;0.82;;;;;;;;;;5282735;28;20271;-68
2022/05/13 12:13:38;;;;;;;5.30;0.70;;;;;;;;;;5281314;28;20104;-68
2022/05/13 12:16:25;;;;;;;5.45;0.60;;;;;;;;;;5281871;28;20024;-68
2022/05/13 12:19:11;;;;;;;4.82;0.60;;;;;;;;;;5281596;28;20058;-69
2022/05/13 12:21:48;;;;;;;6.95;1.13;;;;;;;;;;5282274;28;20056;-70
2022/05/13 12:24:21;;;;;;;5.75;1.00;;;;;;;;;;5281534;28;20467;-69
2022/05/13 12:26:52;;;;;;;7.05;1.00;;;;;;;;;;5281782;28;20085;-69
2022/05/13 12:29:24;;;;;;;5.28;0.98;;;;;;;;;;5281438;28;20025;-69
2022/05/13 12:31:56;;;;;;;6.63;1.52;;;;;;;;;;5282322;28;20025;-69
2022/05/13 12:37:37;;;;;;;8.38;1.80;;;;;;;;;;5281767;28;20029;-70
2022/05/13 12:40:11;;;;;;;6.85;1.83;;;;;;;;;;5281064;28;20103;-69
2022/05/13 12:42:52;;;;;;;7.25;1.95;;;;;;;;;;5281746;28;20430;-70
2022/05/13 12:45:26;;;;;;;5.75;2.83;;;;;;;;;;5281310;28;20099;-70
2022/05/13 12:48:03;;;;;;;7.82;3.22;;;;;;;;;;5281423;28;20024;-69
2022/05/13 12:50:37;;;;;;;9.05;3.25;;;;;;;;;;5281723;28;20052;-69
2022/05/13 12:53:27;;;;;;;7.07;2.90;;;;;;;;;;5281641;28;20485;-69
2022/05/13 12:56:19;;;;;;;9.23;2.28;;;;;;;;;;5281887;28;20035;-69
2022/05/13 12:59:16;;;;;;;7.45;2.38;;;;;;;;;;5281465;28;20156;-69
2022/05/13 13:01:49;;;;;;;8.05;2.20;;;;;;;;;;5278606;28;20031;-69
2022/05/13 13:04:23;;;;;;;10.18;3.30;;;;;;;;;;5281247;28;20037;-69
2022/05/13 13:07:03;;;;;;;8.13;2.78;;;;;;;;;;5281820;28;20505;-69
2022/05/13 13:09:40;;;;;;;9.95;2.90;;;;;;;;;;5280254;28;20025;-69
2022/05/13 13:12:33;;;;;;;8.13;2.42;;;;;;;;;;5281095;28;20024;-69
2022/05/13 13:15:13;;;;;;;11.18;3.78;;;;;;;;;;5280523;28;20035;-69
2022/05/13 13:17:49;;;;;;;7.50;3.78;;;;;;;;;;5281202;28;20033;-69
2022/05/13 13:20:21;;;;;;;10.15;3.75;;;;;;;;;;5281035;28;20429;-69
2022/05/13 13:22:53;;;;;;;10.38;3.58;;;;;;;;;;5281052;28;20023;-70
2022/05/13 13:25:30;;;;;;;8.75;3.40;;;;;;;;;;5281027;28;20037;-70
2022/05/13 13:28:03;;;;;;;7.47;3.10;;;;;;;;;;5281339;28;20055;-69
2022/05/13 13:30:36;;;;;;;9.48;3.60;;;;;;;;;;5280084;28;20052;-69
2022/05/13 13:33:08;;;;;;;11.23;2.75;;;;;;;;;;5281211;28;20395;-69
2022/05/13 13:35:41;;;;;;;9.70;3.40;;;;;;;;;;5280211;28;20058;-69
2022/05/13 13:38:13;;;;;;;7.03;3.33;;;;;;;;;;5281228;28;20044;-70
2022/05/13 13:40:51;;;;;;;5.60;3.30;;;;;;;;;;5281183;28;20024;-69
2022/05/13 13:43:24;;;;;;;8.10;3.40;;;;;;;;;;5279936;28;20029;-70
2022/05/13 13:46:15;;;;;;;9.00;3.15;;;;;;;;;;5281311;28;20115;-69
2022/05/13 13:48:49;;;;;;;5.25;2.65;;;;;;;;;;5281156;28;20494;-69
2022/05/13 13:51:22;;;;;;;5.13;1.90;;;;;;;;;;5279994;28;20103;-69
2022/05/13 13:53:54;;;;;;;8.90;2.80;;;;;;;;;;5281176;28;20044;-69
2022/05/13 13:56:26;;;;;;;5.80;3.92;;;;;;;;;;5280886;28;20033;-71
2022/05/13 13:58:57;;;;;;;7.82;3.33;;;;;;;;;;5280448;28;20025;-69
2022/05/13 14:01:28;;;;;;;6.35;3.42;;;;;;;;;;5280411;28;20464;-69
2022/05/13 14:04:05;;;;;;;7.65;3.80;;;;;;;;;;5280215;28;20531;-69
2022/05/13 14:06:37;;;;;;;13.77;3.95;;;;;;;;;;5280787;28;20078;-69
2022/05/13 14:09:14;;;;;;;8.80;4.95;;;;;;;;;;5280612;28;20017;-70
2022/05/13 14:11:45;;;;;;;11.18;4.72;;;;;;;;;;5279923;28;20024;-69
2022/05/13 14:14:17;;;;;;;7.68;4.45;;;;;;;;;;5280723;28;20025;-70
2022/05/13 14:16:50;;;;;;;10.85;4.70;;;;;;;;;;5280534;28;20021;-69
2022/05/13 14:19:24;;;;;;;9.30;4.82;;;;;;;;;;5279347;28;20045;-69
2022/05/13 14:22:05;;;;;;;5.97;3.92;;;;;;;;;;5280243;28;20197;-69
2022/05/13 14:24:37;;;;;;;7.18;4.10;;;;;;;;;;5283644;28;20032;-70
2022/05/13 14:27:24;;;;;;;8.70;3.53;;;;;;;;;;5278735;28;20044;-70
2022/05/13 14:29:56;;;;;;;8.00;4.00;;;;;;;;;;5283475;28;20016;-70
2022/05/13 14:32:34;;;;;;;12.25;2.85;;;;;;;;;;5283104;28;20104;-70
2022/05/13 14:35:06;;;;;;;;;;;;;;;;;;5282876;28;20490;-70
2022/05/13 14:37:40;;;;;;;6.28;2.42;;;;;;;;;;5276290;28;20178;-71
2022/05/13 14:40:19;;;;;;;6.28;2.03;;;;;;;;;;5282540;28;20052;-71
2022/05/13 14:42:52;;;;;;;6.28;1.17;;;;;;;;;;5284332;28;20020;-69
2022/05/13 14:45:29;;;;;;;6.78;1.80;;;;;;;;;;5281928;28;20099;-71
2022/05/13 14:48:27;;;;;;;9.93;1.60;;;;;;;;;;5278906;28;20025;-70
2022/05/13 14:51:10;;;;;;;8.63;0.95;;;;;;;;;;5283447;28;20034;-70
2022/05/13 14:53:48;;;;;;;5.38;1.02;;;;;;;;;;5280112;28;20027;-69
2022/05/13 14:56:19;;;;;;;6.25;1.25;;;;;;;;;;5282359;28;20024;-69
2022/05/13 14:58:53;;;;;;;6.47;1.10;;;;;;;;;;5284036;28;20070;-69
2022/05/13 15:01:25;;;;;;;4.57;1.15;;;;;;;;;;5282545;28;20402;-69
2022/05/13 15:03:57;;;;;;;8.25;1.30;;;;;;;;;;5283857;28;20024;-69
2022/05/13 15:06:44;;;;;;;9.77;1.20;;;;;;;;;;5283744;28;20033;-68
2022/05/13 15:09:21;;;;;;;11.73;2.22;;;;;;;;;;5283206;28;20021;-68
2022/05/13 15:11:55;;;;;;;9.45;1.02;;;;;;;;;;5284123;28;20375;-68
2022/05/13 15:14:27;;;;;;;3.38;1.00;;;;;;;;;;5282359;28;20024;-67
2022/05/13 15:16:59;;;;;;;4.10;0.98;;;;;;;;;;5282880;28;20028;-68
2022/05/13 15:19:34;;;;;;;7.78;1.10;;;;;;;;;;5283111;28;20040;-68
2022/05/13 15:22:06;;;;;;;4.32;1.23;;;;;;;;;;5282742;28;20024;-68
2022/05/13 15:24:39;;;;;;;6.72;0.95;;;;;;;;;;5283292;28;20549;-68
2022/05/13 15:27:15;;;;;;;10.10;1.30;;;;;;;;;;5283566;28;20468;-70
2022/05/13 15:29:47;;;;;;;6.25;0.73;;;;;;;;;;5281903;28;20017;-69
2022/05/13 15:32:20;;;;;;;5.57;0.80;;;;;;;;;;5282264;28;20035;-67
2022/05/13 15:34:51;;;;;;;7.35;0.60;;;;;;;;;;5283898;28;20376;-69
2022/05/13 15:37:23;;;;;;;9.00;1.15;;;;;;;;;;5282121;28;20020;-69
2022/05/13 15:39:55;;;;;;;4.05;0.70;;;;;;;;;;5283418;28;20095;-69
2022/05/13 15:42:27;;;;;;;7.68;0.88;;;;;;;;;;5281800;28;20095;-70
2022/05/13 15:44:58;;;;;;;7.68;0.60;;;;;;;;;;5283399;28;20032;-68
2022/05/13 15:47:30;;;;;;;5.82;0.80;;;;;;;;;;5282713;28;20016;-70
2022/05/13 15:52:51;;;;;;;10.75;1.50;;;;;;;;;;5283965;28;20364;-68
2022/05/13 15:55:26;;;;;;;4.85;0.60;;;;;;;;;;5282488;28;20016;-68
2022/05/13 15:57:59;;;;;;;7.80;0.60;;;;;;;;;;5282221;28;20051;-68
2022/05/13 16:00:32;;;;;;;6.30;0.70;;;;;;;;;;5282156;28;20041;-69